Ana Sayfa
METAR-TAF:

METAR-TAF

Havaalanları :

A.L. Mangham Jr. Regional Airport

Nacogdoches, Teksas, Amerika Birleşik Devletleri

Enlem: 31-35N, Boylam: 094-43W, yükseklik: 108 m

Güncel hava durumu gözlemi

Rapor saat 00:56 UTC de 1 saat ve 6 dakika önce yapıldı.
Rüzgar güneydan 7 kt
Sıcaklık 31°C
Nem 75%
Basınç 1006 hPa
Görüş mesafesi: 16.1 km
Açık gökyüzü

METAR: KOCH 200056Z AUTO 17007KT 10SM CLR 31/26 A2972 RMK AO2 SLP063 T03060256

Saat: 21:02 (02:02 UTC)


TAF: eksik

4.000'den fazla havaalanı için hava durumu gözlemleri ve tahminleri (METAR ve TAF raporları).

Kullanılabilir istasyonlar harita üzerinde sarı ve kırmızı noktalarla gösterilir.

İstasyonun adını görmek için fareyi noktanın üzerinde gezdirin.

Sonrasında hava gözlem ve tahminlerini görmek için tıklayın.

Haritayı değiştirmek için: yaklaştırmak için siyah artı işaretli yeşil düğmeye ve uzaklaştırmak için de eksi işaretli düğmeye hızla tıklayın; bitişik haritalar için yeşil okları kullanın.


METAR-TAF: